Aktualne dane pomiarowe

Uwaga, wersja testowa! Automatyczne pobieranie danych za pomocą narzędzi lub skryptów to umożliwiających jest zabronione.

Dane meteo z obszaru Polski uzyskane na podstawie depesz SYNOP pobieranych co godzinę z NWS. Najedź myszką na symbol przedstawiony w tabeli, aby uzyskać informacje co do jego znaczenia. Prosimy pamiętać, że to testowa wersja strony, która jeszcze nie jest ukończona. Stworzono również jest krótki FAQ dotyczący korzystania z tej podstrony Anomalie temperatury w chwili obecnej odniesione są do okresu referencyjnego 1951-2016. Okres ten będzie później zmieniony na 1981-2010. Kliknij ikonę aby pobrać plik CSV. Kliknij ikonę aby wygenerować mapę synoptyczną dla danego terminu.

Wybierz Datę:    

        

Częstochowa (12550)

Dane terminowe dla wybranej stacji. Kliknij datę, aby otrzymać dane z tego terminu dla wszystkich stacji.

TemperaturaZachmurzenieWiatrCiśnienieOpadyPogoda
 Data t td wb tx tn tg rh  Nt Nl Cl Cm Ch ws wd g1 g2 wx mslp ppp ch 24h 12h t ww ww w1 w2  
2019-06-22 23:00:00 17.6 11.2 13.6--- 6640.0--3wx--31020.2 985.4 0.4---------
2019-06-22 22:00:00 18.4 11.2 13.9--- 6340.0--3wx--31020.4 985.7 0.8---------
2019-06-22 21:00:00 19.0 10.8 14.0--- 5945.0--3wx--31020.0 985.4 0.3---------
2019-06-22 20:00:00 19.5 10.8 14.2--- 5745.0--2wx--21019.6 985.0 -0.1---------
2019-06-22 19:00:00 21.1 11.1 15.0--- 5345.0--3wx--31019.3 984.9 -0.3---------
2019-06-22 18:00:00 22.5 11.2 15.7 24.7 17.5- 4935.0--3wx-831019.3 985.1 -0.4- 0.012------
2019-06-22 17:00:00 23.4 10.8 15.9--- 4540.0--4wx--41019.2 985.1 -0.7---------
2019-06-22 16:00:00 24.1 10.7 16.1--- 4330.0--4wx--41019.2 985.2 -1.1---------
2019-06-22 15:00:00 24.2 11.5 16.5--- 4527.0--4wx-841019.5 985.5 -1.3---------
2019-06-22 14:00:00 24.2 11.8 16.7--- 4640.0--3wx8831019.8 985.8 -1.5---------
2019-06-22 13:00:00 23.6 12.9 17.0--- 5130.0--3wx--31020.4 986.3 -1.3---------
2019-06-22 12:00:00 23.8 12.7 16.9--- 5027.0--4wx---1020.9 986.8 -0.6---------
2019-06-22 11:00:00 23.1 13.0 16.8--- 5330.0--3wx---1021.5 987.3 0.0---------
2019-06-22 10:00:00 22.4 12.9 16.5--- 5529.0--4wx--41021.9 987.6 0.5---------
2019-06-22 09:00:00 21.8 13.4 16.5--- 5929.0--3wx-831021.8 987.4 0.5---------
2019-06-22 08:00:00 20.0 14.8 16.5--- 7226.0--3wx--31021.9 987.3 0.8---------
2019-06-22 07:00:00 18.7 14.6 15.9--- 7723.0--3wx--31021.8 987.1 1.0---------
2019-06-22 06:00:00 17.5 14.8 15.6 22.3 16.3 16 8414.0--3wx--31021.8 986.9 1.3 10.4 0.012----- 8.0
2019-06-22 05:00:00 17.1 15.1 15.7--- 889.0--4wx--41021.4 986.5 1.6---------
2019-06-22 04:00:00 16.9 15.1 15.6--- 8915.0--3wx--31021.0 986.1 1.6---------
2019-06-22 03:00:00 16.3 14.5 15.0--- 8917.0--3wx--31020.6 985.6 1.3---------
2019-06-22 02:00:00 17.0 14.6 15.3--- 8621.0--3wx--31019.8 984.9 0.9---------
2019-06-22 01:00:00 17.4 14.9 15.7--- 8524.0--3wx--31019.3 984.5 0.7---------
2019-06-22 00:00:00 17.7 14.6 15.6--- 8226.0--2wx--21019.1 984.3 0.8- 0.06------
2019-06-21 23:00:00 18.3 14.6 15.8--- 7935.0--2wx--21018.7 984.0 1.0---------
2019-06-21 22:00:00 17.5 14.8 15.6--- 8440.0--3wx--31018.6 983.8 1.2---------
2019-06-21 21:00:00 17.8 14.9 15.8--- 8330.0--2wx--21018.2 983.5 1.1---------
2019-06-21 20:00:00 19.6 14.8 16.4--- 7445.0--2wx--21017.5 983.0 1.2---------
2019-06-21 19:00:00 20.6 15.4 17.1--- 7230.0--1wx--11016.9 982.6 1.3---------
2019-06-21 18:00:00 22.3 15.2 17.6 26.6 17.1- 6440.0--2wx--21016.5 982.4 1.1- 10.012------
2019-06-21 17:00:00 22.7 15.8 18.1--- 6545.0--4wx---1015.9 981.8 -0.2---------
2019-06-21 16:00:00 22.4 15.7 18.0--- 6630.0--2wx--21015.4 981.3 0.1---------
2019-06-21 15:00:00 21.1 17.1 18.3--- 7835.0--2wx---1015.5 981.3 -0.2---wx-----
2019-06-21 14:00:00 18.2 16.7 17.1--- 919.0--4wx--41016.6 982.0 1.0---wx-----
2019-06-21 13:00:00 17.3 15.5 16.0--- 897.0--3wx--31015.9 981.2 0.5---wx-----
2019-06-21 12:00:00 19.1 16.9 17.5--- 876.0--3wx-1231016.0 981.5 0.5- 3.06wx-----
2019-06-21 11:00:00 21.1 15.6 17.4--- 7119.0--4wx12--1015.2 981.0 0.3---wx-----
2019-06-21 10:00:00 26.5 15.5 19.4--- 5129.0--3wx---1014.3 980.7 0.2---------
2019-06-21 09:00:00 26.2 15.6 19.4--- 5230.0--2wx--21014.6 981.0 0.6---------
2019-06-21 08:00:00 23.6 16.9 19.1--- 6625.0--1wx--11014.6 980.7 0.9---------
2019-06-21 07:00:00 21.9 16.8 18.4--- 7322.0--1wx--11014.6 980.5 0.9---------
2019-06-21 06:00:00 20.3 16.3 17.5 24.5 15.9 15 7820.0--1wx--11014.7 980.4 1.2- 0.012----- 6.2
2019-06-21 05:00:00 18.6 15.5 16.4--- 8220.0--1wx--11014.3 979.8 1.0---------
2019-06-21 04:00:00 16.9 14.9 15.5--- 8816.0--1wx--11014.3 979.6 1.2---------
2019-06-21 03:00:00 15.9 14.4 14.8--- 9113.0--1wx--11014.0 979.2 1.2---------
2019-06-21 02:00:00 16.2 14.4 14.9--- 8916.0--1wx--11013.5 978.8 0.6---------
2019-06-21 01:00:00 16.6 14.4 15.1--- 8720.0--1wx--11013.1 978.4 0.3---------
2019-06-21 00:00:00 17.2 14.3 15.2--- 8322.0--1wx--11012.6 978.0 0.2- 0.06------
1.2 ms

 

Print Friendly, PDF & Email